Time;durP1;ratioP1;P1;durP2;ratioP2;P2;SDS_P1;SDS_P2;PMS_P1;PMS_P2;Temp;Humidity;BMP_temperature;BMP_pressure;BME280_temperature;BME280_humidity;BME280_pressure;Samples;Min_cycle;Max_cycle;Signal;HPM_P1;HPM_P2
2023/04/14 00:00:09;;;;;;;;;;;11.20;99.90;;;;;;5101923;28;19908;-62
2023/04/14 00:02:34;;;;;;;;;;;11.10;99.90;;;;;;5101929;28;19916;-62
2023/04/14 00:05:00;;;;;;;;;;;11.00;99.90;;;;;;5102124;28;19998;-62
2023/04/14 00:07:26;;;;;;;;;;;11.00;99.90;;;;;;5101767;28;19908;-62
2023/04/14 00:09:51;;;;;;;;;;;11.00;99.90;;;;;;5101711;28;19979;-62
2023/04/14 00:12:17;;;;;;;;;;;10.70;99.90;;;;;;5101630;28;19915;-62
2023/04/14 00:14:42;;;;;;;;;;;10.50;99.90;;;;;;5101703;28;20248;-62
2023/04/14 00:17:08;;;;;;;;;;;10.40;99.90;;;;;;5101747;28;19929;-62
2023/04/14 00:19:34;;;;;;;;;;;10.60;99.90;;;;;;5102018;28;19911;-62
2023/04/14 00:22:00;;;;;;;;;;;10.70;99.90;;;;;;5102068;28;20329;-62
2023/04/14 00:24:25;;;;;;;;;;;10.60;99.90;;;;;;5101432;28;19908;-62
2023/04/14 00:26:51;;;;;;;;;;;10.60;99.90;;;;;;5101230;28;20391;-62
2023/04/14 00:29:16;;;;;;;;;;;10.50;99.90;;;;;;5101254;28;20018;-62
2023/04/14 00:31:42;;;;;;;;;;;10.50;99.90;;;;;;5101374;28;19908;-62
2023/04/14 00:34:07;;;;;;;;;;;10.50;99.90;;;;;;5101285;28;19908;-62
2023/04/14 00:36:33;;;;;;;;;;;10.60;99.90;;;;;;5101179;28;20378;-62
2023/04/14 00:38:59;;;;;;;;;;;10.50;99.90;;;;;;5101175;28;19912;-62
2023/04/14 00:41:25;;;;;;;;;;;10.40;99.90;;;;;;5101174;28;19934;-62
2023/04/14 00:43:53;;;;;;;;;;;10.50;99.90;;;;;;5101232;28;20371;-61
2023/04/14 00:46:19;;;;;;;;;;;10.60;99.90;;;;;;5101305;28;19953;-62
2023/04/14 00:48:45;;;;;;;;;;;10.50;99.90;;;;;;5100984;28;19912;-62
2023/04/14 00:51:10;;;;;;;;;;;10.50;99.90;;;;;;5101149;28;19922;-62
2023/04/14 00:53:37;;;;;;;;;;;10.40;99.90;;;;;;5100719;28;19908;-62
2023/04/14 00:56:03;;;;;;;;;;;10.40;99.90;;;;;;5101088;28;19915;-62
2023/04/14 00:58:29;;;;;;;;;;;10.40;99.90;;;;;;5101012;28;19908;-62
2023/04/14 01:00:55;;;;;;;;;;;10.40;99.90;;;;;;5100652;28;19971;-61
2023/04/14 01:03:23;;;;;;;;;;;10.30;99.90;;;;;;5101074;28;19946;-61
2023/04/14 01:05:49;;;;;;;;;;;10.30;99.90;;;;;;5099661;28;19908;-61
2023/04/14 01:08:15;;;;;;;;;;;10.20;99.90;;;;;;5100431;28;19908;-61
2023/04/14 01:10:45;;;;;;;;;;;10.10;99.90;;;;;;5100363;28;19947;-61
2023/04/14 01:13:32;;;;;;;;;;;10.20;99.90;;;;;;5100223;28;19908;-62
2023/04/14 01:16:09;;;;;;;;;;;10.20;99.90;;;;;;5100603;28;19908;-61
2023/04/14 01:18:40;;;;;;;;;;;10.00;99.90;;;;;;5098886;28;19908;-61
2023/04/14 01:21:11;;;;;;;;;;;10.00;99.90;;;;;;5100824;28;19916;-61
2023/04/14 01:23:40;;;;;;;;;;;10.10;99.90;;;;;;5100304;28;20009;-61
2023/04/14 01:26:27;;;;;;;;;;;10.10;99.90;;;;;;5100165;28;19920;-61
2023/04/14 01:29:11;;;;;;;;;;;10.00;99.90;;;;;;5100426;28;20034;-61
2023/04/14 01:32:01;;;;;;;;;;;10.00;99.90;;;;;;5100634;28;19974;-61
2023/04/14 01:34:27;;;;;;;;;;;10.00;99.90;;;;;;5092063;28;19923;-61
2023/04/14 01:37:12;;;;;;;;;;;10.00;99.90;;;;;;5100222;28;20284;-61
2023/04/14 01:39:40;;;;;;;;;;;10.00;99.90;;;;;;5099697;28;19909;-61
2023/04/14 01:42:11;;;;;;;;;;;10.00;99.90;;;;;;5099879;28;19935;-61
2023/04/14 01:44:38;;;;;;;;;;;10.00;99.90;;;;;;5099843;28;20260;-61
2023/04/14 01:47:06;;;;;;;;;;;10.00;99.90;;;;;;5100030;28;19927;-61
2023/04/14 01:49:32;;;;;;;;;;;9.90;99.90;;;;;;5099875;28;19915;-61
2023/04/14 01:51:59;;;;;;;;;;;9.80;99.90;;;;;;5099882;28;19908;-61
2023/04/14 01:54:25;;;;;;;;;;;9.70;99.90;;;;;;5099736;28;20006;-61
2023/04/14 01:56:51;;;;;;;;;;;9.70;99.90;;;;;;5099840;28;19909;-61
2023/04/14 01:59:18;;;;;;;;;;;9.70;99.90;;;;;;5099739;28;19908;-61
2023/04/14 02:01:45;;;;;;;;;;;9.70;99.90;;;;;;5099455;28;19912;-61
2023/04/14 02:04:12;;;;;;;;;;;9.70;99.90;;;;;;5099478;28;19908;-62
2023/04/14 02:06:37;;;;;;;;;;;9.70;99.90;;;;;;5099626;28;19912;-61
2023/04/14 02:09:04;;;;;;;;;;;9.80;99.90;;;;;;5099358;28;20007;-61
2023/04/14 02:11:31;;;;;;;;;;;9.80;99.90;;;;;;5099512;28;20325;-61
2023/04/14 02:13:57;;;;;;;;;;;9.90;99.90;;;;;;5099732;28;19908;-61
2023/04/14 02:16:23;;;;;;;;;;;9.80;99.90;;;;;;5099200;28;19912;-61
2023/04/14 02:18:49;;;;;;;;;;;9.70;99.90;;;;;;5098433;28;19962;-61
2023/04/14 02:21:16;;;;;;;;;;;9.70;99.90;;;;;;5099037;28;19934;-61
2023/04/14 02:23:41;;;;;;;;;;;9.70;99.90;;;;;;5099417;28;19908;-62
2023/04/14 02:26:11;;;;;;;;;;;9.70;99.90;;;;;;5099011;28;19927;-62
2023/04/14 02:28:40;;;;;;;;;;;9.70;99.90;;;;;;5099239;28;19908;-61
2023/04/14 02:31:07;;;;;;;;;;;9.80;99.90;;;;;;5098908;28;19915;-62
2023/04/14 02:33:35;;;;;;;;;;;9.70;99.90;;;;;;5099374;28;20337;-62
2023/04/14 02:36:03;;;;;;;;;;;9.70;99.90;;;;;;5098897;28;19930;-62
2023/04/14 02:38:31;;;;;;;;;;;9.90;99.90;;;;;;5097432;28;19915;-62
2023/04/14 02:40:59;;;;;;;;;;;9.90;99.90;;;;;;5098993;28;19911;-62
2023/04/14 02:43:29;;;;;;;;;;;9.90;99.90;;;;;;5098946;28;19916;-62
2023/04/14 02:45:55;;;;;;;;;;;9.90;99.90;;;;;;5098836;28;19912;-62
2023/04/14 02:48:23;;;;;;;;;;;9.90;99.90;;;;;;5099088;28;19915;-61
2023/04/14 02:50:49;;;;;;;;;;;10.00;99.90;;;;;;5098545;28;20002;-62
2023/04/14 02:53:20;;;;;;;;;;;10.00;99.90;;;;;;5098466;28;19912;-61
2023/04/14 02:55:48;;;;;;;;;;;10.00;99.90;;;;;;5098211;28;19908;-62
2023/04/14 02:58:14;;;;;;;;;;;10.20;99.90;;;;;;5098230;28;19908;-62
2023/04/14 03:00:40;;;;;;;;;;;10.30;99.90;;;;;;5098342;28;19908;-62
2023/04/14 03:03:06;;;;;;;;;;;10.30;99.90;;;;;;5098686;28;20248;-62
2023/04/14 03:05:32;;;;;;;;;;;10.50;99.90;;;;;;5098594;28;19909;-62
2023/04/14 03:07:59;;;;;;;;;;;10.60;99.90;;;;;;5098312;28;19916;-62
2023/04/14 03:10:25;;;;;;;;;;;10.60;99.90;;;;;;5098266;28;19912;-62
2023/04/14 03:12:51;;;;;;;;;;;10.70;99.90;;;;;;5098338;28;19908;-62
2023/04/14 03:15:17;;;;;;;;;;;10.80;99.90;;;;;;5098427;28;19916;-62
2023/04/14 03:17:44;;;;;;;;;;;10.80;99.90;;;;;;5098434;28;19908;-62
2023/04/14 03:20:11;;;;;;;;;;;10.90;99.90;;;;;;5097957;28;20021;-62
2023/04/14 03:22:39;;;;;;;;;;;11.00;99.90;;;;;;5098220;28;19976;-62
2023/04/14 03:25:05;;;;;;;;;;;11.00;99.90;;;;;;5097892;28;19912;-62
2023/04/14 03:27:31;;;;;;;;;;;11.10;99.90;;;;;;5097743;28;19920;-62
2023/04/14 03:30:00;;;;;;;;;;;11.20;99.90;;;;;;5097725;28;20004;-62
2023/04/14 03:32:28;;;;;;;;;;;11.20;99.90;;;;;;5097915;28;19908;-62
2023/04/14 03:34:55;;;;;;;;;;;11.30;99.90;;;;;;5098154;28;20233;-62
2023/04/14 03:37:23;;;;;;;;;;;11.30;99.90;;;;;;5098145;28;19909;-62
2023/04/14 03:39:49;;;;;;;;;;;11.40;99.90;;;;;;5098273;28;19915;-62
2023/04/14 03:42:16;;;;;;;;;;;11.40;99.90;;;;;;5097993;28;19912;-62
2023/04/14 03:44:48;;;;;;;;;;;11.40;99.90;;;;;;5098093;28;20361;-62
2023/04/14 03:47:14;;;;;;;;;;;11.40;99.90;;;;;;5097786;28;20255;-62
2023/04/14 03:49:42;;;;;;;;;;;11.50;99.90;;;;;;5097774;28;19948;-62
2023/04/14 03:52:10;;;;;;;;;;;11.50;99.90;;;;;;5097983;28;19913;-62
2023/04/14 03:54:36;;;;;;;;;;;11.60;99.90;;;;;;5097764;28;19958;-62
2023/04/14 03:57:05;;;;;;;;;;;11.50;99.90;;;;;;5097821;28;19950;-62
2023/04/14 03:59:31;;;;;;;;;;;11.50;99.90;;;;;;5097991;28;19909;-62
2023/04/14 04:01:57;;;;;;;;;;;11.60;99.90;;;;;;5097660;28;19912;-62
2023/04/14 04:04:23;;;;;;;;;;;11.50;99.90;;;;;;5097750;28;19930;-62
2023/04/14 04:06:50;;;;;;;;;;;11.30;99.90;;;;;;5097873;28;19912;-62
2023/04/14 04:09:16;;;;;;;;;;;11.40;99.90;;;;;;5097604;28;19952;-62
2023/04/14 04:11:44;;;;;;;;;;;11.50;99.90;;;;;;5097661;28;19943;-62
2023/04/14 04:14:11;;;;;;;;;;;11.40;99.90;;;;;;5097511;28;20390;-62
2023/04/14 04:16:39;;;;;;;;;;;11.60;99.90;;;;;;5097848;28;20369;-62
2023/04/14 04:19:05;;;;;;;;;;;11.60;99.90;;;;;;5097387;28;19918;-62
2023/04/14 04:21:32;;;;;;;;;;;11.60;99.90;;;;;;5097652;28;19955;-62
2023/04/14 04:23:59;;;;;;;;;;;11.50;99.90;;;;;;5097487;28;20476;-62
2023/04/14 04:26:25;;;;;;;;;;;11.50;99.90;;;;;;5097627;28;20365;-62
2023/04/14 04:28:51;;;;;;;;;;;11.50;99.90;;;;;;5097512;28;19951;-62
2023/04/14 04:31:17;;;;;;;;;;;11.60;99.90;;;;;;5097627;28;19908;-62
2023/04/14 04:33:45;;;;;;;;;;;11.60;99.90;;;;;;5097848;28;19908;-62
2023/04/14 04:36:12;;;;;;;;;;;11.60;99.90;;;;;;5097574;28;19908;-61
2023/04/14 04:38:37;;;;;;;;;;;11.60;99.90;;;;;;5097712;28;19951;-62
2023/04/14 04:41:03;;;;;;;;;;;11.60;99.90;;;;;;5098308;28;19912;-62
2023/04/14 04:43:28;;;;;;;;;;;11.60;99.90;;;;;;5101441;28;19930;-62
2023/04/14 04:45:57;;;;;;;;;;;11.60;99.90;;;;;;5100888;28;19912;-62
2023/04/14 04:48:23;;;;;;;;;;;11.60;99.90;;;;;;5101056;28;19957;-62
2023/04/14 04:50:48;;;;;;;;;;;11.50;99.90;;;;;;5100888;28;19908;-62
2023/04/14 04:53:14;;;;;;;;;;;11.50;99.90;;;;;;5100948;28;19908;-62
2023/04/14 04:55:40;;;;;;;;;;;11.50;99.90;;;;;;5100486;28;19912;-62
2023/04/14 04:58:10;;;;;;;;;;;11.60;99.90;;;;;;5100378;28;19931;-63
2023/04/14 05:00:36;;;;;;;;;;;11.50;99.90;;;;;;5100823;28;19995;-62
2023/04/14 05:03:01;;;;;;;;;;;11.50;99.90;;;;;;5098953;28;20497;-62
2023/04/14 05:05:27;;;;;;;;;;;11.40;99.90;;;;;;5100345;28;19908;-62
2023/04/14 05:07:53;;;;;;;;;;;11.50;99.90;;;;;;5100735;28;19915;-62
2023/04/14 05:10:18;;;;;;;;;;;11.50;99.90;;;;;;5099175;28;19962;-62
2023/04/14 05:12:44;;;;;;;;;;;11.50;99.90;;;;;;5100463;28;20247;-62
2023/04/14 05:15:10;;;;;;;;;;;11.50;99.90;;;;;;5100247;28;19973;-62
2023/04/14 05:17:36;;;;;;;;;;;11.50;99.90;;;;;;5100573;28;19908;-62
2023/04/14 05:20:02;;;;;;;;;;;11.50;99.90;;;;;;5100329;28;19952;-61
2023/04/14 05:22:28;;;;;;;;;;;11.50;99.90;;;;;;5100385;28;20006;-61
2023/04/14 05:24:54;;;;;;;;;;;11.50;99.90;;;;;;5100390;28;19952;-61
2023/04/14 05:27:20;;;;;;;;;;;11.60;99.90;;;;;;5100070;28;19958;-61
2023/04/14 05:29:46;;;;;;;;;;;11.60;99.90;;;;;;5100095;28;19964;-61
2023/04/14 05:32:13;;;;;;;;;;;11.50;99.90;;;;;;5100435;28;20365;-61
2023/04/14 05:34:39;;;;;;;;;;;11.60;99.90;;;;;;5100075;28;19953;-61
2023/04/14 05:37:05;;;;;;;;;;;11.60;99.90;;;;;;5099782;28;19933;-61
2023/04/14 05:39:31;;;;;;;;;;;11.70;99.90;;;;;;5100103;28;20341;-61
2023/04/14 05:41:58;;;;;;;;;;;11.60;99.90;;;;;;5100303;28;19938;-61
2023/04/14 05:44:24;;;;;;;;;;;11.70;99.90;;;;;;5100068;28;19915;-61
2023/04/14 05:46:50;;;;;;;;;;;11.60;99.90;;;;;;5100097;28;19908;-61
2023/04/14 05:49:15;;;;;;;;;;;11.70;99.90;;;;;;5099784;28;19958;-61
2023/04/14 05:51:41;;;;;;;;;;;11.60;99.90;;;;;;5099757;28;20375;-61
2023/04/14 05:54:07;;;;;;;;;;;11.70;99.90;;;;;;5099836;28;19916;-61
2023/04/14 05:56:32;;;;;;;;;;;11.70;99.90;;;;;;5099688;28;19961;-61
2023/04/14 05:58:58;;;;;;;;;;;11.60;99.90;;;;;;5099587;28;19908;-61
2023/04/14 06:01:24;;;;;;;;;;;11.50;99.90;;;;;;5099412;28;19916;-61
2023/04/14 06:03:49;;;;;;;;;;;11.30;99.90;;;;;;5099320;28;19909;-61
2023/04/14 06:06:15;;;;;;;;;;;11.30;99.90;;;;;;5099556;28;19908;-61
2023/04/14 06:08:40;;;;;;;;;;;11.20;99.90;;;;;;5099617;28;20329;-61
2023/04/14 06:11:06;;;;;;;;;;;11.10;99.90;;;;;;5099252;28;19995;-61
2023/04/14 06:13:32;;;;;;;;;;;11.10;99.90;;;;;;5099483;28;19908;-61
2023/04/14 06:15:58;;;;;;;;;;;11.10;99.90;;;;;;5099157;28;19915;-61
2023/04/14 06:18:24;;;;;;;;;;;11.10;99.90;;;;;;5099205;28;19973;-61
2023/04/14 06:20:49;;;;;;;;;;;11.00;99.90;;;;;;5098978;28;19908;-61
2023/04/14 06:23:15;;;;;;;;;;;11.00;99.90;;;;;;5095817;28;19927;-61
2023/04/14 06:25:40;;;;;;;;;;;10.90;99.90;;;;;;5078762;28;20284;-61
2023/04/14 06:28:06;;;;;;;;;;;10.90;99.90;;;;;;5086762;28;19912;-61
2023/04/14 06:30:32;;;;;;;;;;;10.90;99.90;;;;;;5099160;28;20344;-61
2023/04/14 06:33:00;;;;;;;;;;;10.90;99.90;;;;;;5098759;28;19999;-61
2023/04/14 06:35:26;;;;;;;;;;;10.80;99.90;;;;;;5099056;28;19908;-61
2023/04/14 06:37:51;;;;;;;;;;;10.80;99.90;;;;;;5099068;28;19961;-61
2023/04/14 06:40:17;;;;;;;;;;;10.80;99.90;;;;;;5098995;28;19908;-61
2023/04/14 06:42:42;;;;;;;;;;;10.80;99.90;;;;;;5098934;28;20405;-61
2023/04/14 06:45:08;;;;;;;;;;;10.90;99.90;;;;;;5098865;28;19995;-61
2023/04/14 06:47:34;;;;;;;;;;;11.00;99.90;;;;;;5098699;28;19908;-61
2023/04/14 06:49:59;;;;;;;;;;;11.10;99.90;;;;;;5097098;28;19916;-61
2023/04/14 06:52:25;;;;;;;;;;;11.20;99.90;;;;;;5078574;28;19908;-61
2023/04/14 06:54:51;;;;;;;;;;;11.30;99.90;;;;;;5078390;28;19932;-61
2023/04/14 06:57:16;;;;;;;;;;;11.20;99.90;;;;;;5078387;28;19954;-61
2023/04/14 06:59:42;;;;;;;;;;;11.30;99.90;;;;;;5078124;28;19943;-61
2023/04/14 07:02:08;;;;;;;;;;;11.30;99.90;;;;;;5077993;28;19913;-61
2023/04/14 07:04:34;;;;;;;;;;;11.40;99.90;;;;;;5077427;28;20004;-61
2023/04/14 07:07:00;;;;;;;;;;;11.40;99.90;;;;;;5078307;28;19950;-61
2023/04/14 07:09:27;;;;;;;;;;;11.50;99.90;;;;;;5078303;28;19916;-61
2023/04/14 07:11:53;;;;;;;;;;;11.50;99.90;;;;;;5077968;28;19916;-61
2023/04/14 07:14:18;;;;;;;;;;;11.60;99.90;;;;;;5077754;28;19908;-61
2023/04/14 07:16:44;;;;;;;;;;;11.70;99.90;;;;;;5078069;28;19912;-61
2023/04/14 07:19:09;;;;;;;;;;;11.70;99.90;;;;;;5077748;28;19909;-61
2023/04/14 07:21:36;;;;;;;;;;;11.80;99.90;;;;;;5078279;28;19912;-61
2023/04/14 07:24:03;;;;;;;;;;;11.80;99.90;;;;;;5077793;28;19909;-61
2023/04/14 07:26:28;;;;;;;;;;;11.70;99.90;;;;;;5077595;28;19920;-61
2023/04/14 07:28:54;;;;;;;;;;;11.90;99.90;;;;;;5078214;28;19913;-61
2023/04/14 07:31:20;;;;;;;;;;;12.00;99.90;;;;;;5078061;28;20383;-61
2023/04/14 07:33:46;;;;;;;;;;;11.90;99.90;;;;;;5077953;28;19908;-61
2023/04/14 07:36:11;;;;;;;;;;;11.90;99.90;;;;;;5078219;28;19908;-61
2023/04/14 07:38:37;;;;;;;;;;;12.00;99.90;;;;;;5077364;28;19986;-61
2023/04/14 07:41:04;;;;;;;;;;;12.00;99.90;;;;;;5077778;28;19915;-61
2023/04/14 07:43:34;;;;;;;;;;;12.10;99.90;;;;;;5077849;28;19908;-61
2023/04/14 07:46:03;;;;;;;;;;;12.20;99.90;;;;;;5084972;28;19971;-61
2023/04/14 07:48:29;;;;;;;;;;;12.00;99.90;;;;;;5098111;28;19908;-61
2023/04/14 07:50:56;;;;;;;;;;;12.10;99.90;;;;;;5097663;28;20443;-61
2023/04/14 07:53:22;;;;;;;;;;;12.10;99.90;;;;;;5097809;28;20267;-61
2023/04/14 07:55:48;;;;;;;;;;;12.10;99.90;;;;;;5097815;28;19915;-61
2023/04/14 07:58:14;;;;;;;;;;;12.20;99.90;;;;;;5097476;28;19934;-61
2023/04/14 08:00:40;;;;;;;;;;;12.20;99.90;;;;;;5097808;28;19908;-61
2023/04/14 08:03:06;;;;;;;;;;;12.30;99.90;;;;;;5095726;28;20322;-62
2023/04/14 08:05:32;;;;;;;;;;;12.30;99.90;;;;;;5092248;28;19912;-61
2023/04/14 08:07:57;;;;;;;;;;;12.40;99.90;;;;;;5077343;28;20372;-61
2023/04/14 08:10:23;;;;;;;;;;;12.40;99.90;;;;;;5077649;28;19912;-61
2023/04/14 08:12:49;;;;;;;;;;;12.40;99.90;;;;;;5077588;28;19912;-61
2023/04/14 08:15:15;;;;;;;;;;;12.40;99.90;;;;;;5077150;28;20002;-61
2023/04/14 08:17:41;;;;;;;;;;;12.40;99.90;;;;;;5081153;28;19912;-61
2023/04/14 08:20:06;;;;;;;;;;;12.40;99.90;;;;;;5081355;28;19909;-61
2023/04/14 08:22:32;;;;;;;;;;;12.60;99.90;;;;;;5081398;28;20395;-61
2023/04/14 08:24:58;;;;;;;;;;;12.90;99.90;;;;;;5080800;28;20011;-61
2023/04/14 08:27:23;;;;;;;;;;;13.00;99.90;;;;;;5080934;28;19921;-61
2023/04/14 08:29:50;;;;;;;;;;;13.30;99.90;;;;;;5080847;28;19908;-61
2023/04/14 08:32:16;;;;;;;;;;;13.20;99.90;;;;;;5080724;28;19916;-61
2023/04/14 08:34:42;;;;;;;;;;;13.20;99.90;;;;;;5080869;28;19909;-61
2023/04/14 08:37:07;;;;;;;;;;;13.10;99.90;;;;;;5081141;28;20371;-61
2023/04/14 08:39:33;;;;;;;;;;;13.10;99.90;;;;;;5081032;28;19908;-61
2023/04/14 08:41:59;;;;;;;;;;;13.00;99.90;;;;;;5080636;28;20287;-61
2023/04/14 08:44:24;;;;;;;;;;;13.10;99.90;;;;;;5080914;28;19912;-61
2023/04/14 08:46:53;;;;;;;;;;;13.00;99.90;;;;;;5080897;28;19915;-61
2023/04/14 08:49:27;;;;;;;;;;;13.00;99.90;;;;;;5079578;28;19938;-62
2023/04/14 08:51:53;;;;;;;;;;;12.60;99.90;;;;;;5080513;28;20502;-61
2023/04/14 08:54:20;;;;;;;;;;;12.60;99.90;;;;;;5080943;28;19909;-61
2023/04/14 08:56:46;;;;;;;;;;;12.60;99.90;;;;;;5080685;28;19916;-61
2023/04/14 08:59:11;;;;;;;;;;;12.60;99.90;;;;;;5080998;28;19908;-61
2023/04/14 09:01:38;;;;;;;;;;;12.50;99.90;;;;;;5080401;28;19916;-61
2023/04/14 09:04:04;;;;;;;;;;;12.60;99.90;;;;;;5080452;28;19913;-61
2023/04/14 09:06:33;;;;;;;;;;;12.70;99.90;;;;;;5080803;28;19915;-61
2023/04/14 09:09:02;;;;;;;;;;;12.80;99.90;;;;;;5080721;28;19980;-61
2023/04/14 09:11:28;;;;;;;;;;;12.80;99.90;;;;;;5080419;28;19909;-61
2023/04/14 09:13:55;;;;;;;;;;;12.90;99.90;;;;;;5080493;28;19915;-61
2023/04/14 09:16:21;;;;;;;;;;;12.90;99.90;;;;;;5080335;28;19915;-61
2023/04/14 09:18:47;;;;;;;;;;;12.90;99.90;;;;;;5080433;28;19908;-61
2023/04/14 09:21:12;;;;;;;;;;;12.80;99.90;;;;;;5080523;28;19937;-61
2023/04/14 09:23:40;;;;;;;;;;;12.70;99.90;;;;;;5079958;28;19909;-61
2023/04/14 09:26:08;;;;;;;;;;;12.60;99.90;;;;;;5079580;28;19943;-61
2023/04/14 09:28:34;;;;;;;;;;;12.50;99.90;;;;;;5079560;28;19915;-61
2023/04/14 09:31:01;;;;;;;;;;;12.40;99.90;;;;;;5080155;28;19912;-62
2023/04/14 09:33:27;;;;;;;;;;;12.30;99.90;;;;;;5080123;28;19951;-61
2023/04/14 09:35:53;;;;;;;;;;;12.20;99.90;;;;;;5079997;28;19908;-62
2023/04/14 09:38:38;;;;;;;;;;;12.20;99.90;;;;;;5079800;28;20268;-61
2023/04/14 09:41:06;;;;;;;;;;;12.00;99.90;;;;;;5080089;28;19952;-61
2023/04/14 09:43:32;;;;;;;;;;;11.90;99.90;;;;;;5079750;28;20367;-61
2023/04/14 09:46:04;;;;;;;;;;;12.00;99.90;;;;;;5079839;28;19908;-61
2023/04/14 09:48:30;;;;;;;;;;;11.80;99.90;;;;;;5079365;28;19931;-61
2023/04/14 09:51:00;;;;;;;;;;;11.80;99.90;;;;;;5079324;28;19916;-61
2023/04/14 09:53:26;;;;;;;;;;;11.90;99.90;;;;;;5079208;28;19972;-61
2023/04/14 09:55:52;;;;;;;;;;;12.00;99.90;;;;;;5079296;28;19908;-62
2023/04/14 09:58:21;;;;;;;;;;;12.10;99.90;;;;;;5079200;28;19916;-61
2023/04/14 10:00:48;;;;;;;;;;;12.30;99.90;;;;;;5079430;28;19916;-61
2023/04/14 10:03:14;;;;;;;;;;;12.50;99.90;;;;;;5079284;28;19912;-61
2023/04/14 10:05:44;;;;;;;;;;;12.70;99.90;;;;;;5079109;28;19915;-61
2023/04/14 10:08:09;;;;;;;;;;;12.90;99.90;;;;;;5079109;28;20022;-61
2023/04/14 10:10:35;;;;;;;;;;;13.20;99.90;;;;;;5079318;28;19955;-61
2023/04/14 10:13:01;;;;;;;;;;;13.20;99.90;;;;;;5079462;28;19909;-61
2023/04/14 10:15:27;;;;;;;;;;;13.00;99.90;;;;;;5079577;28;19909;-61
2023/04/14 10:17:52;;;;;;;;;;;13.00;99.90;;;;;;5079125;28;19916;-61
2023/04/14 10:20:18;;;;;;;;;;;12.90;99.90;;;;;;5079393;28;20382;-61
2023/04/14 10:22:44;;;;;;;;;;;12.90;99.90;;;;;;5078640;28;19959;-61
2023/04/14 10:25:09;;;;;;;;;;;12.70;99.90;;;;;;5079173;28;19920;-61
2023/04/14 10:27:36;;;;;;;;;;;12.60;99.90;;;;;;5078496;28;19929;-61
2023/04/14 10:30:03;;;;;;;;;;;12.60;99.90;;;;;;5078885;28;19915;-61
2023/04/14 10:32:31;;;;;;;;;;;12.70;99.90;;;;;;5078579;28;20376;-61
2023/04/14 10:34:57;;;;;;;;;;;12.70;99.90;;;;;;5078886;28;19909;-61
2023/04/14 10:37:25;;;;;;;;;;;12.70;99.90;;;;;;5077889;28;20112;-61
2023/04/14 10:39:57;;;;;;;;;;;12.80;99.90;;;;;;5077558;28;19909;-61
2023/04/14 10:42:23;;;;;;;;;;;12.80;99.90;;;;;;5078426;28;19919;-61
2023/04/14 10:45:05;;;;;;;;;;;12.80;99.90;;;;;;5078144;28;20295;-61
2023/04/14 10:47:31;;;;;;;;;;;13.00;99.90;;;;;;5078331;28;20314;-61
2023/04/14 10:49:57;;;;;;;;;;;13.00;99.90;;;;;;5079064;28;19915;-61
2023/04/14 10:52:24;;;;;;;;;;;13.00;99.90;;;;;;5077029;28;19958;-61
2023/04/14 10:55:17;;;;;;;;;;;13.00;99.90;;;;;;5078021;28;19909;-61
2023/04/14 10:57:42;;;;;;;;;;;13.20;99.90;;;;;;5077740;28;20322;-61
2023/04/14 11:00:21;;;;;;;;;;;14.10;99.90;;;;;;5078698;28;19972;-61
2023/04/14 11:03:06;;;;;;;;;;;14.80;99.90;;;;;;5078336;28;19913;-61
2023/04/14 11:05:33;;;;;;;;;;;15.60;99.90;;;;;;5078336;28;19908;-61
2023/04/14 11:08:00;;;;;;;;;;;16.10;99.90;;;;;;5078111;28;20309;-61
2023/04/14 11:10:27;;;;;;;;;;;16.40;99.90;;;;;;5077881;28;19962;-61
2023/04/14 11:12:57;;;;;;;;;;;16.50;99.90;;;;;;5078023;28;19908;-61
2023/04/14 11:15:22;;;;;;;;;;;16.90;99.90;;;;;;5078367;28;19915;-61
2023/04/14 11:17:48;;;;;;;;;;;17.20;99.90;;;;;;5078028;28;19991;-61
2023/04/14 11:20:15;;;;;;;;;;;17.90;99.90;;;;;;5078153;28;19962;-62
2023/04/14 11:22:42;;;;;;;;;;;18.20;99.90;;;;;;5077970;28;19919;-62
2023/04/14 11:25:12;;;;;;;;;;;18.50;99.90;;;;;;5077865;28;19909;-62
2023/04/14 11:27:38;;;;;;;;;;;17.70;99.90;;;;;;5077496;28;20395;-62
2023/04/14 11:30:14;;;;;;;;;;;17.20;99.90;;;;;;5077639;28;19947;-61
2023/04/14 11:32:46;;;;;;;;;;;16.70;99.90;;;;;;5078152;28;19999;-61
2023/04/14 11:35:12;;;;;;;;;;;16.50;99.90;;;;;;5077869;28;19909;-61
2023/04/14 11:37:38;;;;;;;;;;;16.70;99.90;;;;;;5077649;28;20381;-61
2023/04/14 11:40:04;;;;;;;;;;;16.70;99.90;;;;;;5078014;28;19908;-62
2023/04/14 11:42:30;;;;;;;;;;;16.30;99.90;;;;;;5077852;28;19999;-62
2023/04/14 11:44:57;;;;;;;;;;;16.10;99.90;;;;;;5078192;28;19908;-62
2023/04/14 11:47:22;;;;;;;;;;;16.20;99.90;;;;;;5077848;28;19962;-62
2023/04/14 11:49:48;;;;;;;;;;;16.30;99.90;;;;;;5078240;28;19909;-62
2023/04/14 11:52:14;;;;;;;;;;;16.30;99.90;;;;;;5082297;28;19908;-62
2023/04/14 11:54:39;;;;;;;;;;;16.20;99.90;;;;;;5081579;28;19908;-63
2023/04/14 11:57:09;;;;;;;;;;;16.30;99.90;;;;;;5081479;28;19917;-62
2023/04/14 11:59:42;;;;;;;;;;;16.20;99.90;;;;;;5081577;28;19931;-62
2023/04/14 12:02:14;;;;;;;;;;;16.00;99.90;;;;;;5081674;28;20016;-62
2023/04/14 12:04:39;;;;;;;;;;;16.10;99.90;;;;;;5081362;28;20334;-62
2023/04/14 12:07:09;;;;;;;;;;;16.20;99.90;;;;;;5081578;28;19912;-62
2023/04/14 12:09:38;;;;;;;;;;;16.40;99.90;;;;;;5081428;28;19958;-62
2023/04/14 12:12:08;;;;;;;;;;;16.90;99.90;;;;;;5081234;28;20284;-62
2023/04/14 12:14:35;;;;;;;;;;;17.20;99.90;;;;;;5081379;28;19948;-62
2023/04/14 12:17:00;;;;;;;;;;;17.40;99.90;;;;;;5081076;28;20377;-62
2023/04/14 12:19:26;;;;;;;;;;;17.20;99.90;;;;;;5081330;28;20359;-62
2023/04/14 12:21:52;;;;;;;;;;;16.50;99.90;;;;;;5081314;28;19913;-62
2023/04/14 12:24:18;;;;;;;;;;;16.20;99.90;;;;;;5080819;28;19916;-62
2023/04/14 12:26:43;;;;;;;;;;;15.90;99.90;;;;;;5080733;28;19920;-62
2023/04/14 12:29:12;;;;;;;;;;;15.80;99.90;;;;;;5081003;28;19919;-62
2023/04/14 12:31:41;;;;;;;;;;;15.60;99.90;;;;;;5080654;28;19923;-62
2023/04/14 12:34:07;;;;;;;;;;;15.70;99.90;;;;;;5081014;28;20333;-62
2023/04/14 12:36:32;;;;;;;;;;;15.50;99.90;;;;;;5080722;28;19908;-62
2023/04/14 12:39:05;;;;;;;;;;;15.30;99.90;;;;;;5080712;28;19908;-62
2023/04/14 12:41:30;;;;;;;;;;;15.40;99.90;;;;;;5080660;28;19981;-62
2023/04/14 12:43:56;;;;;;;;;;;15.20;99.90;;;;;;5080643;28;19912;-62
2023/04/14 12:46:24;;;;;;;;;;;14.90;99.90;;;;;;5081181;28;19995;-61
2023/04/14 12:48:50;;;;;;;;;;;14.80;99.90;;;;;;5080874;28;19909;-62
2023/04/14 12:51:19;;;;;;;;;;;14.80;99.90;;;;;;5081038;28;19915;-62
2023/04/14 12:53:48;;;;;;;;;;;14.70;99.90;;;;;;5080945;28;20030;-62
2023/04/14 12:56:16;;;;;;;;;;;14.80;99.90;;;;;;5080338;28;20318;-62
2023/04/14 12:58:48;;;;;;;;;;;14.80;99.90;;;;;;5080669;28;19919;-62
2023/04/14 13:01:17;;;;;;;;;;;14.80;99.90;;;;;;5079833;28;20008;-62
2023/04/14 13:03:44;;;;;;;;;;;14.70;99.90;;;;;;5080226;28;19958;-62
2023/04/14 13:06:12;;;;;;;;;;;14.90;99.90;;;;;;5080169;28;20435;-62
2023/04/14 13:08:41;;;;;;;;;;;15.20;99.90;;;;;;5080441;28;19991;-62
2023/04/14 13:11:07;;;;;;;;;;;15.30;99.90;;;;;;5080291;28;19908;-62
2023/04/14 13:13:32;;;;;;;;;;;16.00;99.90;;;;;;5079793;28;19916;-62
2023/04/14 13:15:58;;;;;;;;;;;17.00;99.90;;;;;;5080066;28;19954;-62
2023/04/14 13:18:23;;;;;;;;;;;17.30;99.90;;;;;;5080004;28;19909;-62
2023/04/14 13:20:53;;;;;;;;;;;17.40;99.90;;;;;;5080023;28;19915;-62
2023/04/14 13:23:18;;;;;;;;;;;17.30;99.90;;;;;;5080028;28;19912;-62
2023/04/14 13:25:44;;;;;;;;;;;17.10;99.90;;;;;;5080109;28;20340;-62
2023/04/14 13:28:10;;;;;;;;;;;16.90;99.90;;;;;;5080038;28;19919;-62
2023/04/14 13:30:38;;;;;;;;;;;16.70;99.90;;;;;;5079989;28;19912;-62
2023/04/14 13:33:03;;;;;;;;;;;16.30;99.90;;;;;;5080110;28;19908;-62
2023/04/14 13:35:29;;;;;;;;;;;16.10;99.90;;;;;;5080064;28;19908;-62
2023/04/14 13:37:56;;;;;;;;;;;15.80;99.90;;;;;;5080204;28;19912;-62
2023/04/14 13:40:22;;;;;;;;;;;15.50;99.90;;;;;;5079893;28;19916;-62
2023/04/14 13:42:47;;;;;;;;;;;15.40;99.90;;;;;;5079811;28;19912;-62
2023/04/14 13:45:13;;;;;;;;;;;15.20;99.90;;;;;;5079842;28;19916;-62
2023/04/14 13:47:39;;;;;;;;;;;15.00;99.90;;;;;;5079830;28;19916;-62
2023/04/14 13:50:04;;;;;;;;;;;14.90;99.90;;;;;;5079789;28;20007;-62
2023/04/14 13:52:30;;;;;;;;;;;14.90;99.90;;;;;;5078888;28;19909;-62
2023/04/14 13:54:55;;;;;;;;;;;14.70;99.90;;;;;;5079505;28;20570;-62
2023/04/14 13:57:21;;;;;;;;;;;14.60;99.90;;;;;;5079323;28;20387;-62
2023/04/14 13:59:47;;;;;;;;;;;14.60;99.90;;;;;;5079042;28;19915;-62
2023/04/14 14:02:12;;;;;;;;;;;14.50;99.90;;;;;;5079368;28;19919;-62
2023/04/14 14:04:38;;;;;;;;;;;14.30;99.90;;;;;;5079522;28;20274;-62
2023/04/14 14:07:04;;;;;;;;;;;14.30;99.90;;;;;;5079432;28;19908;-61
2023/04/14 14:09:29;;;;;;;;;;;14.20;99.90;;;;;;5078942;28;20393;-62
2023/04/14 14:11:55;;;;;;;;;;;14.20;99.90;;;;;;5079560;28;19946;-61
2023/04/14 14:14:21;;;;;;;;;;;14.10;99.90;;;;;;5079050;28;19954;-62
2023/04/14 14:16:47;;;;;;;;;;;14.40;99.90;;;;;;5079116;28;20375;-62